createdAt,value
2018-05-31T00:00:29.654Z,16.30
2018-05-31T00:02:58.055Z,16.10
2018-05-31T00:05:26.491Z,16.00
2018-05-31T00:07:55.688Z,15.90
2018-05-31T00:10:24.247Z,15.90
2018-05-31T00:12:52.707Z,15.90
2018-05-31T00:15:22.031Z,15.90
2018-05-31T00:17:51.910Z,15.80
2018-05-31T00:20:20.863Z,15.90
2018-05-31T00:22:49.426Z,15.80
2018-05-31T00:25:19.626Z,15.70
2018-05-31T00:27:48.058Z,15.70
2018-05-31T00:30:17.259Z,15.60
2018-05-31T00:32:45.746Z,15.60
2018-05-31T00:35:14.131Z,15.60
2018-05-31T00:37:42.490Z,15.70
2018-05-31T00:40:12.075Z,15.90
2018-05-31T00:42:40.586Z,15.90
2018-05-31T00:45:09.002Z,16.10
2018-05-31T00:47:37.486Z,16.20
2018-05-31T00:50:06.044Z,16.30
2018-05-31T00:52:34.631Z,16.30
2018-05-31T00:55:04.818Z,16.40
2018-05-31T00:57:33.391Z,16.40
2018-05-31T01:00:02.686Z,16.60
2018-05-31T01:02:31.185Z,16.50
2018-05-31T01:04:59.776Z,16.60
2018-05-31T01:07:28.347Z,16.70
2018-05-31T01:09:56.918Z,16.80
2018-05-31T01:12:25.367Z,16.60
2018-05-31T01:14:53.839Z,16.60
2018-05-31T01:17:22.287Z,16.70
2018-05-31T01:19:50.946Z,16.70
2018-05-31T01:22:19.410Z,16.80
2018-05-31T01:24:47.880Z,16.80
2018-05-31T01:27:17.027Z,16.80
2018-05-31T01:29:45.855Z,16.80
2018-05-31T01:32:16.852Z,16.70
2018-05-31T01:34:45.244Z,16.70
2018-05-31T01:37:13.711Z,16.70
2018-05-31T01:39:42.111Z,16.70
2018-05-31T01:42:11.797Z,16.60
2018-05-31T01:44:40.359Z,16.60
2018-05-31T01:47:08.850Z,16.60
2018-05-31T01:49:37.402Z,16.50
2018-05-31T01:52:05.951Z,16.50
2018-05-31T01:54:35.286Z,16.40
2018-05-31T01:57:04.083Z,16.40
2018-05-31T01:59:32.874Z,16.30
2018-05-31T02:02:01.290Z,16.30
2018-05-31T02:04:30.039Z,16.30
2018-05-31T02:06:58.474Z,16.20
2018-05-31T02:09:27.039Z,16.20
2018-05-31T02:11:55.611Z,16.20
2018-05-31T02:14:24.877Z,16.10
2018-05-31T02:16:53.423Z,16.10
2018-05-31T02:19:21.915Z,16.20
2018-05-31T02:21:51.211Z,16.10
2018-05-31T02:24:20.486Z,16.20
2018-05-31T02:26:48.951Z,16.20
2018-05-31T02:29:17.487Z,16.10
2018-05-31T02:31:45.887Z,16.10
2018-05-31T02:34:14.283Z,16.10
2018-05-31T02:36:43.451Z,16.10
2018-05-31T02:39:11.850Z,16.10
2018-05-31T02:41:41.075Z,16.00
2018-05-31T02:44:10.743Z,15.90
2018-05-31T02:46:39.290Z,15.90
2018-05-31T02:49:07.835Z,15.90
2018-05-31T02:51:36.378Z,15.80
2018-05-31T02:54:04.959Z,15.70
2018-05-31T02:56:33.369Z,15.60
2018-05-31T02:59:01.975Z,15.60
2018-05-31T03:01:30.544Z,15.50
2018-05-31T03:03:59.006Z,15.40
2018-05-31T03:06:28.383Z,15.30
2018-05-31T03:08:57.550Z,15.20
2018-05-31T03:11:26.069Z,15.20
2018-05-31T03:13:54.626Z,15.10
2018-05-31T03:19:02.500Z,14.90
2018-05-31T03:21:30.907Z,14.70
2018-05-31T03:23:59.374Z,14.70
2018-05-31T03:26:27.962Z,14.60
2018-05-31T03:28:56.371Z,14.60
2018-05-31T03:31:25.708Z,14.40
2018-05-31T03:33:54.886Z,14.50
2018-05-31T03:36:23.291Z,14.40
2018-05-31T03:38:51.696Z,14.50
2018-05-31T03:41:20.071Z,14.50
2018-05-31T03:43:48.646Z,14.50
2018-05-31T03:46:17.205Z,14.60
2018-05-31T03:48:45.631Z,14.60
2018-05-31T03:51:14.806Z,14.80
2018-05-31T03:53:43.176Z,14.70
2018-05-31T03:56:11.551Z,14.80
2018-05-31T03:58:40.860Z,15.00
2018-05-31T04:01:09.270Z,15.00
2018-05-31T04:03:37.836Z,15.10
2018-05-31T04:06:07.151Z,15.30
2018-05-31T04:08:36.495Z,15.40
2018-05-31T04:11:05.703Z,15.50
2018-05-31T04:13:35.799Z,15.70
2018-05-31T04:16:05.090Z,15.80
2018-05-31T04:18:33.675Z,15.80
2018-05-31T04:21:02.111Z,16.00
2018-05-31T04:23:31.259Z,16.20
2018-05-31T04:26:00.571Z,16.40
2018-05-31T04:28:28.982Z,16.40
2018-05-31T04:30:58.150Z,16.40
2018-05-31T04:33:26.528Z,16.40
2018-05-31T04:35:56.069Z,16.40
2018-05-31T04:38:24.439Z,16.50
2018-05-31T04:40:52.853Z,16.60
2018-05-31T04:43:21.255Z,16.60
2018-05-31T04:45:50.283Z,16.60
2018-05-31T04:48:18.727Z,16.70
2018-05-31T04:50:47.152Z,16.80
2018-05-31T04:53:15.558Z,17.00
2018-05-31T04:55:43.983Z,17.00
2018-05-31T04:58:12.391Z,17.00
2018-05-31T05:00:40.834Z,17.10
2018-05-31T05:03:09.263Z,17.20
2018-05-31T05:05:38.586Z,17.40
2018-05-31T05:08:07.622Z,17.40
2018-05-31T05:10:36.800Z,17.60
2018-05-31T05:13:05.388Z,17.50
2018-05-31T05:15:34.963Z,17.70
2018-05-31T05:18:04.323Z,17.80
2018-05-31T05:20:32.701Z,17.90
2018-05-31T05:23:01.083Z,18.10
2018-05-31T05:25:29.471Z,18.20
2018-05-31T05:27:57.821Z,18.30
2018-05-31T05:30:26.230Z,18.20
2018-05-31T05:32:54.799Z,18.40
2018-05-31T05:35:24.012Z,18.40
2018-05-31T05:37:52.475Z,18.40
2018-05-31T05:40:20.870Z,18.50
2018-05-31T05:42:49.255Z,18.70
2018-05-31T05:45:17.642Z,18.80
2018-05-31T05:47:46.267Z,19.00
2018-05-31T05:50:14.863Z,19.00
2018-05-31T05:52:43.383Z,19.00
2018-05-31T05:55:13.650Z,19.20
2018-05-31T05:57:42.027Z,19.20
2018-05-31T06:00:10.938Z,19.40
2018-05-31T06:02:39.486Z,19.60
2018-05-31T06:05:09.495Z,19.90
2018-05-31T06:07:37.936Z,19.90
2018-05-31T06:10:06.595Z,20.00
2018-05-31T06:12:35.054Z,20.10
2018-05-31T06:15:04.406Z,20.00
2018-05-31T06:17:33.922Z,20.00
2018-05-31T06:20:03.123Z,20.20
2018-05-31T06:22:32.302Z,20.30
2018-05-31T06:25:00.767Z,20.30
2018-05-31T06:27:29.327Z,20.50
2018-05-31T06:29:57.739Z,20.70
2018-05-31T06:32:26.339Z,20.90
2018-05-31T06:34:54.736Z,20.90
2018-05-31T06:37:24.092Z,21.30
2018-05-31T06:39:53.958Z,21.30
2018-05-31T06:42:22.362Z,21.40
2018-05-31T06:44:50.774Z,21.30
2018-05-31T06:47:19.144Z,21.40
2018-05-31T06:49:47.510Z,21.90
2018-05-31T06:52:16.131Z,22.40
2018-05-31T06:54:44.538Z,23.20
2018-05-31T06:57:13.071Z,24.10
2018-05-31T06:59:41.458Z,24.90
2018-05-31T07:02:10.765Z,25.90
2018-05-31T07:04:39.299Z,25.90
2018-05-31T07:07:09.396Z,27.30
2018-05-31T07:09:37.767Z,27.30
2018-05-31T07:12:07.046Z,28.60
2018-05-31T07:14:35.493Z,28.60
2018-05-31T07:17:04.623Z,29.20
2018-05-31T07:19:34.003Z,29.80
2018-05-31T07:22:02.570Z,30.20
2018-05-31T07:24:31.008Z,30.30
2018-05-31T07:26:59.383Z,30.70
2018-05-31T07:29:27.826Z,31.10
2018-05-31T07:31:56.375Z,31.40
2018-05-31T07:34:24.768Z,31.80
2018-05-31T07:36:53.307Z,32.10
2018-05-31T07:39:22.439Z,31.70
2018-05-31T07:41:51.743Z,32.00
2018-05-31T07:44:20.176Z,32.00
2018-05-31T07:46:48.576Z,32.10
2018-05-31T07:49:16.983Z,31.80
2018-05-31T07:51:45.563Z,31.30
2018-05-31T07:54:13.960Z,31.40
2018-05-31T07:56:42.341Z,31.40
2018-05-31T07:59:11.104Z,31.30
2018-05-31T08:01:39.503Z,31.30
2018-05-31T08:04:07.901Z,31.10
2018-05-31T08:06:36.414Z,30.80
2018-05-31T08:09:05.752Z,29.90
2018-05-31T08:11:34.170Z,29.10
2018-05-31T08:14:02.537Z,28.40
2018-05-31T08:16:31.095Z,27.90
2018-05-31T08:18:59.463Z,27.70
2018-05-31T08:21:27.854Z,27.10
2018-05-31T08:23:56.224Z,27.10
2018-05-31T08:26:24.634Z,26.90
2018-05-31T08:28:53.010Z,26.90
2018-05-31T08:31:21.440Z,26.40
2018-05-31T08:33:49.840Z,26.30
2018-05-31T08:36:18.222Z,26.00
2018-05-31T08:38:46.620Z,26.10
2018-05-31T08:41:15.017Z,26.10
2018-05-31T08:43:43.411Z,25.90
2018-05-31T08:46:11.812Z,25.70
2018-05-31T08:48:40.971Z,25.40
2018-05-31T08:51:09.384Z,25.30
2018-05-31T08:53:37.766Z,25.40
2018-05-31T08:56:06.639Z,25.30
2018-05-31T08:58:35.118Z,25.30
2018-05-31T09:01:03.506Z,25.40
2018-05-31T09:03:31.887Z,25.60
2018-05-31T09:06:00.266Z,25.80
2018-05-31T09:08:29.463Z,25.80
2018-05-31T09:10:57.911Z,25.80
2018-05-31T09:13:26.308Z,25.90
2018-05-31T09:15:55.450Z,25.60
2018-05-31T09:18:23.854Z,25.60
2018-05-31T09:20:52.254Z,25.40
2018-05-31T09:23:20.639Z,25.50
2018-05-31T09:25:49.028Z,25.60
2018-05-31T09:28:18.194Z,25.20
2018-05-31T09:30:46.674Z,25.10
2018-05-31T09:33:15.166Z,24.80
2018-05-31T09:35:44.907Z,25.00
2018-05-31T09:38:14.091Z,24.90
2018-05-31T09:40:42.624Z,24.90
2018-05-31T09:43:11.055Z,24.80
2018-05-31T09:45:39.631Z,24.90
2018-05-31T09:48:08.056Z,25.00
2018-05-31T09:50:36.611Z,24.80
2018-05-31T09:53:05.927Z,24.90
2018-05-31T09:55:34.311Z,24.80
2018-05-31T09:58:02.719Z,24.80
2018-05-31T10:00:36.919Z,24.90
2018-05-31T10:03:05.461Z,25.10
2018-05-31T10:05:33.886Z,25.10
2018-05-31T10:08:02.303Z,25.10
2018-05-31T10:10:30.843Z,24.80
2018-05-31T10:12:59.235Z,24.90
2018-05-31T10:15:27.623Z,24.90
2018-05-31T10:17:56.003Z,25.00
2018-05-31T10:20:25.951Z,25.10
2018-05-31T10:22:54.501Z,25.00
2018-05-31T10:25:22.891Z,25.00
2018-05-31T10:27:51.792Z,25.10
2018-05-31T10:30:21.481Z,25.00
2018-05-31T10:32:49.966Z,25.10
2018-05-31T10:35:18.331Z,25.00
2018-05-31T10:37:46.891Z,24.90
2018-05-31T10:40:16.034Z,25.10
2018-05-31T10:42:44.507Z,25.10
2018-05-31T10:45:12.992Z,25.10
2018-05-31T10:47:41.378Z,25.10
2018-05-31T10:50:09.786Z,25.20
2018-05-31T10:52:38.282Z,25.30
2018-05-31T10:55:06.863Z,25.20
2018-05-31T10:57:36.174Z,25.40
2018-05-31T11:00:05.143Z,25.40
2018-05-31T11:02:33.583Z,25.40
2018-05-31T11:05:02.135Z,25.40
2018-05-31T11:07:31.451Z,25.30
2018-05-31T11:09:59.991Z,25.30
2018-05-31T11:12:29.183Z,25.20
2018-05-31T11:14:58.365Z,25.30
2018-05-31T11:17:26.927Z,25.30
2018-05-31T11:19:55.342Z,25.50
2018-05-31T11:22:25.060Z,25.70
2018-05-31T11:24:53.491Z,25.70
2018-05-31T11:27:22.812Z,25.80
2018-05-31T11:29:51.217Z,25.80
2018-05-31T11:32:19.621Z,25.90
2018-05-31T11:34:48.119Z,26.10
2018-05-31T11:37:16.484Z,26.20
2018-05-31T11:39:44.859Z,26.30
2018-05-31T11:42:14.042Z,26.20
2018-05-31T11:44:42.427Z,26.10
2018-05-31T11:47:10.974Z,26.10
2018-05-31T11:49:39.372Z,25.80
2018-05-31T11:52:07.914Z,25.90
2018-05-31T11:54:36.340Z,26.10
2018-05-31T11:57:05.223Z,26.10
2018-05-31T11:59:33.603Z,26.00
2018-05-31T12:02:03.648Z,25.80
2018-05-31T12:04:32.043Z,25.80
2018-05-31T12:07:00.439Z,25.60
2018-05-31T12:09:28.803Z,25.70
2018-05-31T12:11:58.023Z,25.60
2018-05-31T12:14:26.491Z,25.60
2018-05-31T12:16:55.063Z,25.60
2018-05-31T12:19:23.615Z,25.40
2018-05-31T12:21:51.982Z,25.20
2018-05-31T12:24:20.351Z,25.20
2018-05-31T12:26:48.873Z,25.10
2018-05-31T12:29:18.030Z,25.10
2018-05-31T12:31:46.430Z,25.10
2018-05-31T12:34:14.860Z,25.20
2018-05-31T12:39:06.356Z,25.10
2018-05-31T12:41:34.928Z,25.20
2018-05-31T12:44:03.332Z,25.40
2018-05-31T12:46:31.712Z,25.50
2018-05-31T12:49:00.252Z,25.40
2018-05-31T12:51:29.400Z,25.10
2018-05-31T12:53:57.775Z,25.10
2018-05-31T12:56:26.146Z,25.20
2018-05-31T12:58:54.568Z,25.30
2018-05-31T13:01:23.732Z,25.50
2018-05-31T13:03:52.124Z,25.40
2018-05-31T13:06:20.559Z,25.40
2018-05-31T13:08:49.019Z,25.30
2018-05-31T13:11:18.204Z,25.40
2018-05-31T13:13:47.326Z,25.50
2018-05-31T13:16:16.039Z,25.40
2018-05-31T13:18:44.575Z,25.60
2018-05-31T13:21:12.979Z,25.60
2018-05-31T13:23:41.519Z,25.40
2018-05-31T13:26:10.087Z,25.40
2018-05-31T13:28:38.619Z,25.30
2018-05-31T13:31:07.010Z,25.30
2018-05-31T13:33:35.843Z,25.30
2018-05-31T13:36:05.283Z,25.20
2018-05-31T13:38:33.691Z,25.10
2018-05-31T13:41:02.072Z,24.90
2018-05-31T13:43:31.375Z,25.00
2018-05-31T13:46:00.731Z,25.20
2018-05-31T13:48:29.211Z,25.20
2018-05-31T13:50:57.768Z,25.40
2018-05-31T13:53:26.279Z,25.40
2018-05-31T13:55:55.155Z,25.40
2018-05-31T13:58:24.349Z,25.40
2018-05-31T14:00:53.662Z,25.40
2018-05-31T14:03:22.146Z,25.40
2018-05-31T14:05:50.627Z,25.40
2018-05-31T14:08:19.011Z,25.60
2018-05-31T14:10:47.554Z,25.60
2018-05-31T14:13:15.999Z,25.50
2018-05-31T14:15:44.539Z,25.40
2018-05-31T14:18:12.925Z,25.20
2018-05-31T14:20:41.483Z,25.10
2018-05-31T14:23:09.955Z,25.20
2018-05-31T14:25:38.430Z,25.20
2018-05-31T14:28:07.611Z,25.10
2018-05-31T14:30:36.032Z,25.10
2018-05-31T14:33:05.431Z,25.20
2018-05-31T14:35:34.788Z,25.20
2018-05-31T14:38:03.335Z,25.20
2018-05-31T14:40:32.510Z,24.80
2018-05-31T14:43:00.882Z,24.90
2018-05-31T14:45:29.279Z,24.70
2018-05-31T14:47:57.662Z,24.70
2018-05-31T14:50:26.111Z,24.80
2018-05-31T14:52:54.510Z,24.90
2018-05-31T14:55:22.879Z,25.20
2018-05-31T14:57:51.306Z,25.40
2018-05-31T15:00:19.699Z,25.50
2018-05-31T15:02:48.066Z,25.20
2018-05-31T15:05:16.455Z,25.30
2018-05-31T15:07:44.975Z,25.40
2018-05-31T15:10:14.346Z,25.50
2018-05-31T15:12:42.732Z,25.70
2018-05-31T15:15:12.775Z,25.50
2018-05-31T15:17:41.270Z,25.50
2018-05-31T15:20:09.627Z,25.30
2018-05-31T15:22:38.883Z,25.00
2018-05-31T15:25:07.291Z,25.00
2018-05-31T15:27:36.611Z,25.00
2018-05-31T15:30:05.543Z,25.00
2018-05-31T15:32:33.926Z,24.80
2018-05-31T15:35:02.379Z,24.80
2018-05-31T15:37:30.917Z,24.80
2018-05-31T15:40:00.344Z,24.90
2018-05-31T15:42:28.766Z,24.70
2018-05-31T15:44:57.130Z,24.70
2018-05-31T15:47:25.553Z,24.60
2018-05-31T15:49:53.947Z,24.50
2018-05-31T15:52:22.350Z,24.30
2018-05-31T15:54:51.860Z,24.60
2018-05-31T15:57:20.258Z,24.50
2018-05-31T15:59:48.670Z,24.60
2018-05-31T16:02:17.058Z,24.70
2018-05-31T16:04:45.519Z,24.70
2018-05-31T16:07:14.823Z,24.50
2018-05-31T16:09:43.231Z,24.50
2018-05-31T16:12:11.631Z,24.70
2018-05-31T16:14:40.806Z,24.80
2018-05-31T16:17:09.419Z,24.80
2018-05-31T16:19:37.827Z,24.80
2018-05-31T16:22:06.214Z,24.50
2018-05-31T16:24:35.404Z,24.10
2018-05-31T16:27:03.970Z,24.10
2018-05-31T16:29:32.550Z,24.10
2018-05-31T16:32:00.921Z,23.90
2018-05-31T16:34:31.687Z,23.90
2018-05-31T16:37:00.096Z,23.90
2018-05-31T16:39:29.339Z,23.50
2018-05-31T16:41:57.763Z,23.50
2018-05-31T16:44:26.154Z,23.50
2018-05-31T16:46:54.537Z,23.50
2018-05-31T16:49:23.711Z,23.40
2018-05-31T16:51:52.094Z,23.40
2018-05-31T16:54:20.471Z,23.50
2018-05-31T16:56:50.810Z,23.30
2018-05-31T16:59:19.209Z,23.30
2018-05-31T17:01:48.391Z,23.20
2018-05-31T17:04:17.653Z,23.20
2018-05-31T17:06:46.827Z,23.30
2018-05-31T17:09:15.237Z,23.30
2018-05-31T17:11:44.554Z,23.30
2018-05-31T17:14:12.986Z,23.30
2018-05-31T17:16:42.204Z,23.30
2018-05-31T17:19:11.922Z,23.30
2018-05-31T17:21:40.310Z,23.30
2018-05-31T17:24:09.495Z,23.00
2018-05-31T17:26:37.862Z,22.90
2018-05-31T17:29:07.043Z,22.70
2018-05-31T17:31:35.480Z,22.70
2018-05-31T17:34:04.627Z,22.70
2018-05-31T17:36:33.011Z,22.70
2018-05-31T17:39:01.392Z,22.70
2018-05-31T17:41:29.831Z,22.70
2018-05-31T17:43:58.395Z,22.50
2018-05-31T17:46:26.821Z,22.50
2018-05-31T17:48:55.959Z,22.50
2018-05-31T17:51:24.355Z,22.50
2018-05-31T17:53:55.116Z,22.60
2018-05-31T17:56:23.536Z,22.50
2018-05-31T17:58:52.131Z,22.50
2018-05-31T18:01:20.692Z,22.30
2018-05-31T18:03:49.235Z,22.30
2018-05-31T18:06:19.555Z,22.10
2018-05-31T18:08:47.999Z,22.00
2018-05-31T18:11:17.151Z,22.00
2018-05-31T18:13:45.498Z,22.00
2018-05-31T18:16:14.635Z,22.10
2018-05-31T18:18:43.035Z,22.10
2018-05-31T18:21:12.360Z,22.10
2018-05-31T18:23:40.910Z,22.00
2018-05-31T18:26:09.282Z,21.90
2018-05-31T18:28:39.603Z,21.70
2018-05-31T18:31:08.023Z,21.70
2018-05-31T18:33:38.571Z,21.60
2018-05-31T18:36:07.691Z,21.60
2018-05-31T18:38:36.268Z,21.50
2018-05-31T18:41:04.703Z,21.60
2018-05-31T18:43:34.833Z,21.80
2018-05-31T18:46:03.231Z,21.80
2018-05-31T18:48:32.435Z,21.90
2018-05-31T18:51:01.080Z,21.90
2018-05-31T18:53:29.479Z,21.90
2018-05-31T18:55:57.890Z,21.90
2018-05-31T18:58:27.255Z,22.00
2018-05-31T19:00:56.168Z,22.00
2018-05-31T19:03:24.731Z,22.00
2018-05-31T19:05:53.123Z,22.00
2018-05-31T19:08:21.675Z,22.00
2018-05-31T19:10:50.067Z,22.00
2018-05-31T19:13:24.179Z,21.80
2018-05-31T19:15:52.542Z,21.70
2018-05-31T19:18:26.499Z,21.70
2018-05-31T19:20:55.635Z,21.70
2018-05-31T19:23:24.091Z,21.70
2018-05-31T19:25:53.147Z,21.60
2018-05-31T19:28:22.312Z,21.40
2018-05-31T19:30:56.650Z,21.40
2018-05-31T19:33:25.855Z,21.30
2018-05-31T19:35:59.819Z,21.30
2018-05-31T19:38:28.178Z,21.30
2018-05-31T19:40:56.550Z,21.20
2018-05-31T19:43:30.901Z,21.20
2018-05-31T19:45:59.311Z,21.00
2018-05-31T19:48:27.864Z,20.90
2018-05-31T19:50:56.281Z,20.80
2018-05-31T19:53:31.275Z,20.70
2018-05-31T19:55:59.818Z,20.60
2018-05-31T19:58:33.824Z,20.60
2018-05-31T20:01:10.379Z,20.60
2018-05-31T20:03:38.797Z,20.50
2018-05-31T20:06:07.364Z,20.40
2018-05-31T20:08:35.902Z,20.30
2018-05-31T20:11:04.336Z,20.20
2018-05-31T20:13:32.706Z,20.10
2018-05-31T20:16:02.851Z,20.00
2018-05-31T20:18:31.202Z,19.90
2018-05-31T20:20:59.759Z,19.80
2018-05-31T20:23:31.882Z,19.60
2018-05-31T20:26:01.188Z,19.40
2018-05-31T20:28:29.748Z,19.30
2018-05-31T20:30:58.233Z,19.20
2018-05-31T20:33:26.599Z,19.10
2018-05-31T20:35:55.135Z,19.00
2018-05-31T20:38:24.039Z,18.90
2018-05-31T20:40:52.391Z,18.70
2018-05-31T20:43:20.959Z,18.60
2018-05-31T20:45:49.387Z,18.50
2018-05-31T20:48:18.686Z,18.20
2018-05-31T20:50:47.103Z,18.20
2018-05-31T20:53:15.474Z,18.10
2018-05-31T20:55:43.852Z,18.10
2018-05-31T20:58:13.043Z,17.90
2018-05-31T21:00:42.145Z,17.90
2018-05-31T21:03:10.731Z,17.80
2018-05-31T21:05:39.195Z,17.70
2018-05-31T21:08:07.596Z,17.80
2018-05-31T21:10:35.983Z,17.70
2018-05-31T21:13:04.377Z,17.70
2018-05-31T21:15:33.570Z,17.60
2018-05-31T21:18:01.944Z,17.60
2018-05-31T21:20:31.086Z,17.70
2018-05-31T21:23:00.959Z,17.60
2018-05-31T21:25:29.359Z,17.60
2018-05-31T21:28:02.468Z,17.50
2018-05-31T21:30:31.015Z,17.50
2018-05-31T21:33:00.359Z,17.50
2018-05-31T21:35:28.810Z,17.40
2018-05-31T21:37:58.035Z,17.30
2018-05-31T21:40:27.355Z,17.20
2018-05-31T21:42:55.916Z,17.20
2018-05-31T21:45:24.899Z,17.20
2018-05-31T21:47:53.438Z,17.10
2018-05-31T21:50:21.827Z,17.00
2018-05-31T21:52:50.406Z,16.90
2018-05-31T21:55:18.771Z,16.80
2018-05-31T21:57:47.120Z,16.70
2018-05-31T22:00:31.318Z,16.60
2018-05-31T22:02:59.871Z,16.50
2018-05-31T22:05:29.064Z,16.30
2018-05-31T22:07:57.635Z,16.30
2018-05-31T22:10:26.790Z,16.10
2018-05-31T22:12:55.179Z,16.10
2018-05-31T22:15:23.563Z,16.10
2018-05-31T22:17:51.999Z,16.00
2018-05-31T22:20:20.418Z,15.90
2018-05-31T22:22:48.954Z,15.90
2018-05-31T22:25:17.371Z,15.80
2018-05-31T22:27:45.891Z,15.80
2018-05-31T22:30:14.279Z,15.70
2018-05-31T22:32:42.822Z,15.70
2018-05-31T22:35:13.603Z,15.60
2018-05-31T22:37:41.995Z,15.60
2018-05-31T22:40:10.390Z,15.60
2018-05-31T22:42:38.768Z,15.60
2018-05-31T22:45:07.172Z,15.60
2018-05-31T22:47:35.727Z,15.50
2018-05-31T22:50:04.115Z,15.50
2018-05-31T22:52:32.675Z,15.50
2018-05-31T22:55:01.070Z,15.50
2018-05-31T22:57:30.382Z,15.50
2018-05-31T22:59:58.799Z,15.40
2018-05-31T23:02:27.172Z,15.40
2018-05-31T23:04:55.556Z,15.40
2018-05-31T23:07:24.091Z,15.40
2018-05-31T23:09:52.479Z,15.40
2018-05-31T23:12:20.862Z,15.30
2018-05-31T23:14:50.206Z,15.20
2018-05-31T23:17:18.751Z,15.20
2018-05-31T23:19:47.158Z,15.10
2018-05-31T23:22:15.543Z,15.00
2018-05-31T23:24:43.960Z,14.90
2018-05-31T23:27:12.499Z,14.90
2018-05-31T23:29:40.903Z,14.70
2018-05-31T23:32:09.627Z,14.60
2018-05-31T23:34:38.035Z,14.50
2018-05-31T23:37:06.592Z,14.50
2018-05-31T23:39:34.980Z,14.40
2018-05-31T23:42:03.391Z,14.40
2018-05-31T23:44:31.792Z,14.40
2018-05-31T23:47:00.347Z,14.40
2018-05-31T23:49:29.582Z,14.50
2018-05-31T23:51:58.700Z,14.40
2018-05-31T23:54:27.234Z,14.40
2018-05-31T23:56:56.383Z,14.40
2018-05-31T23:59:24.796Z,14.40
